Iron River, Michigan
Current Conditions -  °F | °C
As of 4:15 AM on Monday 26 Jan 2015 (Local Time) from KLNL Reporting Station
Overcast Overcast  
Wind Chill:   Ceiling: 7000
Heat Index: 13°   Visibility: 10mi
Dew Point:   Wind: 5mph
Humidity: 74%   Direction: 200°SSW
Pressure: 29.84"   Gusts: NA
Location:  46.09°N, 88.64°W
Report Text: KLNL 261015Z AUTO 20004KT 10SM OVC070 M11/M14 A2984 RMK AO2 T11061145
Loading
Personal Weather Stations






























Interactive Weather Map New forecast layout! Learn more

10-Day Weather Forecast

Advertisements
Track Severe Weather on mobile